createdAt,value
2016-09-26T00:00:38.099Z,73.47
2016-09-26T00:01:38.128Z,72.9
2016-09-26T00:02:38.149Z,73.09
2016-09-26T00:03:38.156Z,72.99
2016-09-26T00:04:38.181Z,72.9
2016-09-26T00:05:38.198Z,72.61
2016-09-26T00:06:38.222Z,72.9
2016-09-26T00:07:38.244Z,72.8
2016-09-26T00:08:38.260Z,72.71
2016-09-26T00:09:38.283Z,73.09
2016-09-26T00:10:38.308Z,72.71
2016-09-26T00:11:38.315Z,72.61
2016-09-26T00:12:38.352Z,72.32
2016-09-26T00:13:38.363Z,72.71
2016-09-26T00:14:38.386Z,72.13
2016-09-26T00:15:38.400Z,72.13
2016-09-26T00:16:38.419Z,72.32
2016-09-26T00:17:38.450Z,72.42
2016-09-26T00:18:38.479Z,72.42
2016-09-26T00:19:38.482Z,72.13
2016-09-26T00:20:38.511Z,72.71
2016-09-26T00:21:38.520Z,72.42
2016-09-26T00:22:38.545Z,72.8
2016-09-26T00:23:38.568Z,72.67
2016-09-26T00:24:38.594Z,72.58
2016-09-26T00:25:38.598Z,72.77
2016-09-26T00:26:38.631Z,73.28
2016-09-26T00:27:38.654Z,72.77
2016-09-26T00:28:38.661Z,72.8
2016-09-26T00:29:38.679Z,73.28
2016-09-26T00:30:38.712Z,72.52
2016-09-26T00:31:38.724Z,72.61
2016-09-26T00:32:38.749Z,72.67
2016-09-26T00:33:38.775Z,72.99
2016-09-26T00:34:38.789Z,72.8
2016-09-26T00:35:38.801Z,72.77
2016-09-26T00:36:38.823Z,72.77
2016-09-26T00:37:38.852Z,72.77
2016-09-26T00:38:38.867Z,72.77
2016-09-26T00:39:38.895Z,72.96
2016-09-26T00:40:38.913Z,72.86
2016-09-26T00:41:38.924Z,73.34
2016-09-26T00:42:38.958Z,73.24
2016-09-26T00:43:38.965Z,73.54
2016-09-26T00:44:38.985Z,73.63
2016-09-26T00:45:39.008Z,73.72
2016-09-26T00:46:39.030Z,73.63
2016-09-26T00:47:39.059Z,73.63
2016-09-26T00:48:39.070Z,73.54
2016-09-26T00:49:39.085Z,73.34
2016-09-26T00:50:39.114Z,73.44
2016-09-26T00:51:39.130Z,73.72
2016-09-26T00:52:39.149Z,74.2
2016-09-26T00:53:39.176Z,73.91
2016-09-26T00:54:39.193Z,74.4
2016-09-26T00:55:39.216Z,74.36
2016-09-26T00:56:39.230Z,74.45
2016-09-26T00:57:39.269Z,75.07
2016-09-26T00:58:39.273Z,75.16
2016-09-26T00:59:39.296Z,75.22
2016-09-26T01:00:39.315Z,75.79
2016-09-26T01:01:39.336Z,75.6
2016-09-26T01:02:39.357Z,75.98
2016-09-26T01:03:39.378Z,75.79
2016-09-26T01:04:39.390Z,75.6
2016-09-26T01:05:39.408Z,75.51
2016-09-26T01:06:39.436Z,76.08
2016-09-26T01:07:39.460Z,76.08
2016-09-26T01:08:39.487Z,75.89
2016-09-26T01:09:39.496Z,76.08
2016-09-26T01:10:39.513Z,75.89
2016-09-26T01:11:39.540Z,75.89
2016-09-26T01:12:39.558Z,75.79
2016-09-26T01:13:39.581Z,75.98
2016-09-26T01:14:39.600Z,75.89
2016-09-26T01:15:39.613Z,76.08
2016-09-26T01:16:39.631Z,76.08
2016-09-26T01:17:39.649Z,76.08
2016-09-26T01:18:39.672Z,76.37
2016-09-26T01:19:39.701Z,76.65
2016-09-26T01:20:39.721Z,76.81
2016-09-26T01:21:39.736Z,76.52
2016-09-26T01:22:39.770Z,76.62
2016-09-26T01:23:39.774Z,77.19
2016-09-26T01:24:39.796Z,77.19
2016-09-26T01:25:39.818Z,77.28
2016-09-26T01:26:39.849Z,77.48
2016-09-26T01:27:39.863Z,77.38
2016-09-26T01:28:39.872Z,77.09
2016-09-26T01:29:39.893Z,77.23
2016-09-26T01:30:39.918Z,77.28
2016-09-26T01:31:39.940Z,77.28
2016-09-26T01:32:39.966Z,77.51
2016-09-26T01:33:39.981Z,77.51
2016-09-26T01:34:40.006Z,77.42
2016-09-26T01:35:40.018Z,77.28
2016-09-26T01:36:40.045Z,77.42
2016-09-26T01:37:40.055Z,77.23
2016-09-26T01:38:40.079Z,77.13
2016-09-26T01:39:40.101Z,77.19
2016-09-26T01:40:40.119Z,77.9
2016-09-26T01:41:40.145Z,77.7
2016-09-26T01:42:40.165Z,77.7
2016-09-26T01:43:40.185Z,77.7
2016-09-26T01:44:40.204Z,77.51
2016-09-26T01:45:40.212Z,77.51
2016-09-26T01:46:40.242Z,77.7
2016-09-26T01:47:40.257Z,78.19
2016-09-26T01:48:40.281Z,78.09
2016-09-26T01:49:40.297Z,77.9
2016-09-26T01:50:40.309Z,77.51
2016-09-26T01:51:40.345Z,77.61
2016-09-26T01:52:40.365Z,77.61
2016-09-26T01:53:40.377Z,77.61
2016-09-26T01:54:40.393Z,78.19
2016-09-26T01:55:40.421Z,77.99
2016-09-26T01:56:40.450Z,78.47
2016-09-26T01:57:40.451Z,79.14
2016-09-26T01:58:40.471Z,79.24
2016-09-26T01:59:40.489Z,80.96
2016-09-26T02:00:40.514Z,81.44
2016-09-26T02:01:40.546Z,81.63
2016-09-26T02:02:40.557Z,81.44
2016-09-26T02:03:40.586Z,81.92
2016-09-26T02:04:40.598Z,81.25
2016-09-26T02:05:40.624Z,81.63
2016-09-26T02:06:40.640Z,82.3
2016-09-26T02:07:40.662Z,82.78
2016-09-26T02:08:40.679Z,83.16
2016-09-26T02:09:40.702Z,83.93
2016-09-26T02:10:40.714Z,84.12
2016-09-26T02:11:40.744Z,84.98
2016-09-26T02:12:40.750Z,85.84
2016-09-26T02:13:40.777Z,85.65
2016-09-26T02:14:40.788Z,86.22
2016-09-26T02:15:40.824Z,86.13
2016-09-26T02:16:40.833Z,85.46
2016-09-26T02:17:40.856Z,86.04
2016-09-26T02:18:40.874Z,85.65
2016-09-26T02:19:40.907Z,85.46
2016-09-26T02:20:40.923Z,86.08
2016-09-26T02:21:40.932Z,86.51
2016-09-26T02:22:40.952Z,86.9
2016-09-26T02:23:40.999Z,87.51
2016-09-26T02:24:41.007Z,87.76
2016-09-26T02:25:41.018Z,88.66
2016-09-26T02:26:41.043Z,88.56
2016-09-26T02:27:41.066Z,88.23
2016-09-26T02:28:41.086Z,89.33
2016-09-26T02:29:41.100Z,88.81
2016-09-26T02:30:41.118Z,88.81
2016-09-26T02:31:41.147Z,89
2016-09-26T02:32:41.154Z,89.58
2016-09-26T02:33:41.178Z,89.09
2016-09-26T02:34:41.205Z,88.9
2016-09-26T02:35:41.225Z,89.58
2016-09-26T02:36:41.236Z,89.33
2016-09-26T02:37:41.257Z,89.67
2016-09-26T02:38:41.287Z,89.95
2016-09-26T02:39:41.298Z,89.62
2016-09-26T02:40:41.319Z,89.48
2016-09-26T02:41:41.335Z,89.58
2016-09-26T02:42:41.364Z,90.05
2016-09-26T02:43:41.370Z,90.05
2016-09-26T02:44:41.399Z,90.05
2016-09-26T02:45:41.429Z,90.05
2016-09-26T02:46:41.440Z,90.15
2016-09-26T02:47:41.460Z,89.43
2016-09-26T02:48:41.473Z,90.19
2016-09-26T02:49:41.501Z,90
2016-09-26T02:50:41.522Z,90.05
2016-09-26T02:51:41.542Z,90.19
2016-09-26T02:52:41.565Z,90.15
2016-09-26T02:53:41.581Z,89.38
2016-09-26T02:54:41.595Z,90.15
2016-09-26T02:55:41.618Z,89.43
2016-09-26T02:56:41.645Z,90
2016-09-26T02:57:41.677Z,90
2016-09-26T02:58:41.684Z,89.9
2016-09-26T02:59:41.695Z,89.9
2016-09-26T03:00:41.727Z,89.33
2016-09-26T03:01:41.742Z,89.9
2016-09-26T03:02:41.755Z,88.95
2016-09-26T03:03:41.778Z,90.58
2016-09-26T03:04:41.810Z,90.09
2016-09-26T03:05:41.811Z,90.44
2016-09-26T03:06:41.839Z,90.96
2016-09-26T03:07:41.868Z,90.77
2016-09-26T03:08:41.873Z,91.05
2016-09-26T03:09:41.901Z,91.3
2016-09-26T03:10:41.912Z,91.25
2016-09-26T03:11:41.947Z,91.39
2016-09-26T03:12:41.960Z,91.01
2016-09-26T03:13:41.989Z,91.39
2016-09-26T03:14:41.991Z,91.05
2016-09-26T03:15:42.014Z,91.44
2016-09-26T03:16:42.038Z,91.53
2016-09-26T03:17:42.062Z,91.15
2016-09-26T03:18:42.076Z,90.24
2016-09-26T03:19:42.100Z,90.53
2016-09-26T03:20:42.120Z,90.09
2016-09-26T03:21:42.152Z,90.09
2016-09-26T03:22:42.152Z,90.96
2016-09-26T03:23:42.175Z,91.15
2016-09-26T03:24:42.198Z,90.77
2016-09-26T03:25:42.226Z,90.77
2016-09-26T03:26:42.247Z,90.63
2016-09-26T03:27:42.251Z,90.09
2016-09-26T03:28:42.270Z,90.39
2016-09-26T03:29:42.288Z,91.05
2016-09-26T03:30:42.315Z,90.53
2016-09-26T03:31:42.337Z,91.44
2016-09-26T03:32:42.365Z,90.67
2016-09-26T03:33:42.378Z,91.39
2016-09-26T03:34:42.408Z,91.49
2016-09-26T03:35:42.436Z,92.3
2016-09-26T03:36:42.437Z,92.54
2016-09-26T03:37:42.452Z,92.63
2016-09-26T03:38:42.482Z,92.16
2016-09-26T03:39:42.506Z,92.73
2016-09-26T03:40:42.529Z,92.63
2016-09-26T03:41:42.540Z,92.54
2016-09-26T03:42:42.566Z,91.87
2016-09-26T03:43:42.584Z,91.97
2016-09-26T03:44:42.609Z,92.06
2016-09-26T03:45:42.620Z,92.06
2016-09-26T03:46:42.642Z,92.63
2016-09-26T03:47:42.659Z,93.21
2016-09-26T03:48:42.684Z,93.12
2016-09-26T03:49:42.705Z,93.3
2016-09-26T03:50:42.712Z,92.92
2016-09-26T03:51:42.741Z,93.21
2016-09-26T03:52:42.764Z,92.83
2016-09-26T03:53:42.773Z,93.12
2016-09-26T03:54:42.792Z,93.02
2016-09-26T03:55:42.826Z,92.92
2016-09-26T03:56:42.845Z,92.06
2016-09-26T03:57:42.858Z,92.63
2016-09-26T03:58:42.881Z,91.97
2016-09-26T03:59:42.910Z,91.87
2016-09-26T04:01:42.918Z,92.54
2016-09-26T04:02:42.943Z,92.44
2016-09-26T04:03:42.967Z,92.83
2016-09-26T04:04:42.989Z,92.44
2016-09-26T04:05:43.007Z,92.44
2016-09-26T04:06:43.032Z,92.63
2016-09-26T04:07:43.041Z,92.54
2016-09-26T04:08:43.062Z,92.16
2016-09-26T04:09:43.081Z,92.54
2016-09-26T04:10:43.106Z,93.5
2016-09-26T04:11:43.116Z,92.44
2016-09-26T04:12:43.146Z,92.44
2016-09-26T04:13:43.167Z,92.54
2016-09-26T04:14:43.196Z,93.21
2016-09-26T04:15:43.206Z,92.83
2016-09-26T04:16:43.231Z,92.63
2016-09-26T04:17:43.255Z,93.21
2016-09-26T04:18:43.268Z,93.21
2016-09-26T04:19:43.289Z,92.73
2016-09-26T04:20:43.309Z,91.87
2016-09-26T04:21:43.319Z,92.16
2016-09-26T04:22:43.347Z,91.68
2016-09-26T04:23:43.371Z,91.97
2016-09-26T04:24:43.378Z,92.06
2016-09-26T04:25:43.412Z,91.87
2016-09-26T04:26:43.428Z,91.97
2016-09-26T04:27:43.438Z,91.97
2016-09-26T04:28:43.469Z,92.06
2016-09-26T04:29:43.474Z,91.97
2016-09-26T04:30:43.511Z,91.68
2016-09-26T04:31:43.531Z,92.06
2016-09-26T04:32:43.536Z,91.77
2016-09-26T04:33:43.566Z,91.77
2016-09-26T04:34:43.579Z,91.39
2016-09-26T04:35:43.612Z,90.53
2016-09-26T04:36:43.617Z,90.15
2016-09-26T04:37:43.635Z,90.91
2016-09-26T04:38:43.656Z,91.01
2016-09-26T04:39:43.687Z,91.58
2016-09-26T04:40:43.705Z,91.77
2016-09-26T04:41:43.724Z,91.87
2016-09-26T04:42:43.743Z,92.06
2016-09-26T04:43:43.766Z,91.97
2016-09-26T04:44:43.768Z,91.87
2016-09-26T04:45:43.797Z,92.06
2016-09-26T04:46:43.818Z,92.16
2016-09-26T04:47:43.837Z,91.97
2016-09-26T04:48:43.859Z,91.87
2016-09-26T04:49:43.871Z,91.97
2016-09-26T04:50:43.907Z,91.87
2016-09-26T04:51:43.923Z,92.16
2016-09-26T04:52:43.944Z,91.97
2016-09-26T04:53:43.963Z,91.11
2016-09-26T04:54:43.986Z,90.91
2016-09-26T04:55:43.999Z,91.58
2016-09-26T04:56:44.026Z,91.58
2016-09-26T04:57:44.045Z,91.39
2016-09-26T04:58:44.062Z,91.2
2016-09-26T04:59:44.083Z,91.11
2016-09-26T05:00:44.097Z,90.44
2016-09-26T05:01:44.109Z,90.63
2016-09-26T05:02:44.135Z,90.91
2016-09-26T05:03:44.145Z,90.53
2016-09-26T05:04:44.178Z,89.95
2016-09-26T05:05:44.204Z,89.09
2016-09-26T05:06:44.215Z,90.15
2016-09-26T05:07:44.227Z,90.44
2016-09-26T05:08:44.258Z,90.24
2016-09-26T05:09:44.270Z,90.24
2016-09-26T05:10:44.291Z,89.86
2016-09-26T05:11:44.304Z,89.86
2016-09-26T05:12:44.340Z,90.05
2016-09-26T05:13:44.373Z,90.15
2016-09-26T05:14:44.376Z,89.86
2016-09-26T05:15:44.392Z,90.53
2016-09-26T05:16:44.419Z,90.34
2016-09-26T05:17:44.443Z,90.34
2016-09-26T05:18:44.460Z,90.63
2016-09-26T05:19:44.480Z,90.82
2016-09-26T05:20:44.498Z,90.82
2016-09-26T05:21:44.519Z,91.01
2016-09-26T05:22:44.539Z,90.91
2016-09-26T05:23:44.554Z,90.82
2016-09-26T05:24:44.563Z,90.34
2016-09-26T05:25:44.620Z,90.53
2016-09-26T05:26:44.614Z,90.24
2016-09-26T05:27:44.641Z,90.72
2016-09-26T05:28:44.648Z,90.82
2016-09-26T05:29:44.675Z,91.11
2016-09-26T05:30:44.699Z,90.82
2016-09-26T05:31:44.711Z,89.95
2016-09-26T05:32:44.739Z,90.15
2016-09-26T05:33:44.755Z,89.76
2016-09-26T05:34:44.776Z,89.38
2016-09-26T05:35:44.797Z,90.05
2016-09-26T05:36:44.812Z,89.58
2016-09-26T05:37:44.841Z,90.05
2016-09-26T05:38:44.854Z,89.48
2016-09-26T05:39:44.865Z,89
2016-09-26T05:40:44.892Z,89.48
2016-09-26T05:41:44.914Z,89.19
2016-09-26T05:42:44.931Z,89.67
2016-09-26T05:43:44.953Z,89.48
2016-09-26T05:44:44.974Z,89.76
2016-09-26T05:45:44.995Z,89.09
2016-09-26T05:46:45.012Z,89.14
2016-09-26T05:47:45.026Z,88.71
2016-09-26T05:48:45.047Z,88.9
2016-09-26T05:49:45.063Z,89.19
2016-09-26T05:50:45.086Z,89.04
2016-09-26T05:51:45.109Z,89.33
2016-09-26T05:52:45.137Z,89.48
2016-09-26T05:53:45.158Z,89.76
2016-09-26T05:54:45.168Z,89.09
2016-09-26T05:55:45.189Z,89.33
2016-09-26T05:56:45.219Z,89.09
2016-09-26T05:57:45.227Z,88.09
2016-09-26T05:58:45.256Z,89.04
2016-09-26T05:59:45.280Z,88.71
2016-09-26T06:00:45.300Z,88.95
2016-09-26T06:01:45.306Z,89.14
2016-09-26T06:02:45.340Z,88.76
2016-09-26T06:03:45.369Z,89
2016-09-26T06:04:45.371Z,88.95
2016-09-26T06:05:45.393Z,88.09
2016-09-26T06:06:45.418Z,88.85
2016-09-26T06:07:45.422Z,89.04
2016-09-26T06:08:45.445Z,88.47
2016-09-26T06:09:45.490Z,87.9
2016-09-26T06:10:45.488Z,88.47
2016-09-26T06:11:45.513Z,88.95
2016-09-26T06:12:45.532Z,88.76
2016-09-26T06:13:45.554Z,88.28
2016-09-26T06:14:45.567Z,87.7
2016-09-26T06:15:45.598Z,87.32
2016-09-26T06:16:45.616Z,86.94
2016-09-26T06:17:45.641Z,87.51
2016-09-26T06:18:45.657Z,87.61
2016-09-26T06:19:45.671Z,86.46
2016-09-26T06:20:45.697Z,87.13
2016-09-26T06:21:45.716Z,86.94
2016-09-26T06:22:45.737Z,87.41
2016-09-26T06:23:45.747Z,87.13
2016-09-26T06:24:45.780Z,87.23
2016-09-26T06:25:45.816Z,87.61
2016-09-26T06:26:45.826Z,87.51
2016-09-26T06:27:45.841Z,87.41
2016-09-26T06:28:45.851Z,86.94
2016-09-26T06:29:45.879Z,87.13
2016-09-26T06:30:45.900Z,86.65
2016-09-26T06:31:45.918Z,86.46
2016-09-26T06:32:45.935Z,86.74
2016-09-26T06:33:45.959Z,86.65
2016-09-26T06:34:45.968Z,86.65
2016-09-26T06:35:45.999Z,86.46
2016-09-26T06:36:46.017Z,85.98
2016-09-26T06:37:46.028Z,85.88
2016-09-26T06:38:46.049Z,85.88
2016-09-26T06:39:46.082Z,85.31
2016-09-26T06:40:46.093Z,85.35
2016-09-26T06:41:46.120Z,85.35
2016-09-26T06:42:46.143Z,84.88
2016-09-26T06:43:46.159Z,85.16
2016-09-26T06:44:46.175Z,85.16
2016-09-26T06:45:46.193Z,84.68
2016-09-26T06:46:46.217Z,85.35
2016-09-26T06:47:46.234Z,84.97
2016-09-26T06:48:46.257Z,85.54
2016-09-26T06:49:46.276Z,85.35
2016-09-26T06:50:46.293Z,85.54
2016-09-26T06:51:46.314Z,85.06
2016-09-26T06:52:46.345Z,85.16
2016-09-26T06:53:46.363Z,84.68
2016-09-26T06:54:46.383Z,84.68
2016-09-26T06:55:46.385Z,84.78
2016-09-26T06:56:46.422Z,84.01
2016-09-26T06:57:46.469Z,83.63
2016-09-26T06:58:46.497Z,83.82
2016-09-26T06:59:46.482Z,83.25
2016-09-26T07:00:46.497Z,83.05
2016-09-26T07:01:46.564Z,82.71
2016-09-26T07:02:46.570Z,82.52
2016-09-26T07:03:46.560Z,82.23
2016-09-26T07:04:46.582Z,81.85
2016-09-26T07:05:46.614Z,81.56
2016-09-26T07:06:46.630Z,80.79
2016-09-26T07:07:46.646Z,80.79
2016-09-26T07:08:46.670Z,80.79
2016-09-26T07:09:46.681Z,80.6
2016-09-26T07:10:46.701Z,81.18
2016-09-26T07:11:46.722Z,81.95
2016-09-26T07:12:46.745Z,80.6
2016-09-26T07:13:46.760Z,80.99
2016-09-26T07:14:46.790Z,80.89
2016-09-26T07:15:46.806Z,80.41
2016-09-26T07:16:46.835Z,79.74
2016-09-26T07:17:46.843Z,79.36
2016-09-26T07:18:46.876Z,79.74
2016-09-26T07:19:46.899Z,79.74
2016-09-26T07:20:46.917Z,79.78
2016-09-26T07:21:46.945Z,80.16
2016-09-26T07:22:46.961Z,80.55
2016-09-26T07:23:46.974Z,80.51
2016-09-26T07:24:46.996Z,80.6
2016-09-26T07:25:47.015Z,81.46
2016-09-26T07:26:47.037Z,81.56
2016-09-26T07:27:47.066Z,81.75
2016-09-26T07:28:47.082Z,81.85
2016-09-26T07:29:47.090Z,81.27
2016-09-26T07:30:47.130Z,81.56
2016-09-26T07:31:47.145Z,81.46
2016-09-26T07:32:47.154Z,81.95
2016-09-26T07:33:47.195Z,82.42
2016-09-26T07:34:47.214Z,82.71
2016-09-26T07:35:47.225Z,82.81
2016-09-26T07:36:47.244Z,82.9
2016-09-26T07:37:47.262Z,82.71
2016-09-26T07:38:47.292Z,82.81
2016-09-26T07:39:47.304Z,82.9
2016-09-26T07:40:47.336Z,82.81
2016-09-26T07:41:47.347Z,81.95
2016-09-26T07:42:47.369Z,81.46
2016-09-26T07:43:47.393Z,81.37
2016-09-26T07:44:47.409Z,80.6
2016-09-26T07:45:47.437Z,80.7
2016-09-26T07:46:47.457Z,80.64
2016-09-26T07:47:47.480Z,81.12
2016-09-26T07:48:47.497Z,80.93
2016-09-26T07:49:47.521Z,81.51
2016-09-26T07:50:47.541Z,81.22
2016-09-26T07:51:47.548Z,81.75
2016-09-26T07:52:47.572Z,81.66
2016-09-26T07:53:47.595Z,81.85
2016-09-26T07:54:47.617Z,81.66
2016-09-26T07:55:47.640Z,81.95
2016-09-26T07:56:47.659Z,82.32
2016-09-26T07:57:47.686Z,82.32
2016-09-26T07:58:47.694Z,82.71
2016-09-26T07:59:47.726Z,82.42
2016-09-26T08:00:47.757Z,81.66
2016-09-26T08:01:47.767Z,81.37
2016-09-26T08:02:47.789Z,82.04
2016-09-26T08:03:47.798Z,82.42
2016-09-26T08:04:47.824Z,82.04
2016-09-26T08:05:47.865Z,82.23
2016-09-26T08:06:47.857Z,82.81
2016-09-26T08:07:47.888Z,82.42
2016-09-26T08:08:47.909Z,82.62
2016-09-26T08:09:47.932Z,82.81
2016-09-26T08:10:47.943Z,82.81
2016-09-26T08:11:47.964Z,82.81
2016-09-26T08:12:47.998Z,81.66
2016-09-26T08:13:48.018Z,81.75
2016-09-26T08:14:48.041Z,81.7
2016-09-26T08:15:48.048Z,81.79
2016-09-26T08:16:48.072Z,82.42
2016-09-26T08:17:48.096Z,82.71
2016-09-26T08:18:48.121Z,82.62
2016-09-26T08:19:48.139Z,82.32
2016-09-26T08:20:48.155Z,82.81
2016-09-26T08:21:48.175Z,83.19
2016-09-26T08:22:48.200Z,83.38
2016-09-26T08:23:48.208Z,83.29
2016-09-26T08:24:48.245Z,83.95
2016-09-26T08:25:48.269Z,83.63
2016-09-26T08:26:48.268Z,84.3
2016-09-26T08:27:48.289Z,84.11
2016-09-26T08:28:48.323Z,84.11
2016-09-26T08:29:48.351Z,84.3
2016-09-26T08:30:48.368Z,84.2
2016-09-26T08:31:48.377Z,84.11
2016-09-26T08:32:48.394Z,84.2
2016-09-26T08:33:48.425Z,83.92
2016-09-26T08:34:48.446Z,83.48
2016-09-26T08:35:48.522Z,83.09
2016-09-26T08:36:48.476Z,83.19
2016-09-26T08:37:48.505Z,82.81
2016-09-26T08:38:48.522Z,83
2016-09-26T08:39:48.551Z,82.71
2016-09-26T08:40:48.573Z,82.23
2016-09-26T08:41:48.578Z,81.95
2016-09-26T08:42:48.606Z,81.85
2016-09-26T08:43:48.632Z,81.75
2016-09-26T08:44:48.645Z,82.32
2016-09-26T08:45:48.657Z,82.81
2016-09-26T08:46:48.691Z,82.71
2016-09-26T08:47:48.713Z,83.48
2016-09-26T08:48:48.735Z,83.19
2016-09-26T08:49:48.753Z,83.19
2016-09-26T08:50:48.778Z,83.19
2016-09-26T08:51:48.806Z,83.38
2016-09-26T08:52:48.811Z,82.81
2016-09-26T08:53:48.833Z,82.71
2016-09-26T08:54:48.853Z,82.04
2016-09-26T08:55:48.870Z,81.02
2016-09-26T08:56:48.898Z,80.83
2016-09-26T08:57:48.916Z,80.93
2016-09-26T08:58:48.935Z,80.74
2016-09-26T08:59:48.947Z,80.55
2016-09-26T09:00:48.987Z,80.83
2016-09-26T09:01:49.000Z,80.74
2016-09-26T09:02:49.017Z,81.12
2016-09-26T09:03:49.044Z,80.74
2016-09-26T09:04:49.066Z,80.55
2016-09-26T09:05:49.080Z,80.26
2016-09-26T09:06:49.098Z,79.68
2016-09-26T09:07:49.129Z,79.78
2016-09-26T09:08:49.154Z,79.82
2016-09-26T09:09:49.166Z,80.01
2016-09-26T09:10:49.191Z,79.53
2016-09-26T09:11:49.221Z,79.44
2016-09-26T09:12:49.234Z,79.53
2016-09-26T09:13:49.246Z,79.44
2016-09-26T09:14:49.277Z,79.24
2016-09-26T09:15:49.300Z,79.91
2016-09-26T09:16:49.311Z,80.11
2016-09-26T09:17:49.328Z,79.82
2016-09-26T09:18:49.362Z,80.11
2016-09-26T09:19:49.381Z,79.72
2016-09-26T09:20:49.400Z,79.44
2016-09-26T09:21:49.422Z,79.24
2016-09-26T09:22:49.448Z,78.67
2016-09-26T09:23:49.460Z,79.05
2016-09-26T09:24:49.481Z,78.38
2016-09-26T09:25:49.503Z,78.67
2016-09-26T09:26:49.521Z,78.47
2016-09-26T09:27:49.551Z,78.86
2016-09-26T09:28:49.559Z,78.38
2016-09-26T09:29:49.589Z,77.71
2016-09-26T09:30:49.601Z,77.75
2016-09-26T09:31:49.638Z,78.13
2016-09-26T09:32:49.661Z,77.36
2016-09-26T09:33:49.675Z,77.08
2016-09-26T09:34:49.691Z,75.96
2016-09-26T09:35:49.724Z,75.57
2016-09-26T09:36:49.733Z,74.71
2016-09-26T09:37:49.749Z,74.27
2016-09-26T09:38:49.788Z,73.69
2016-09-26T09:39:49.812Z,73.02
2016-09-26T09:40:49.830Z,72.64
2016-09-26T09:41:49.843Z,72.58
2016-09-26T09:42:49.868Z,72.73
2016-09-26T09:43:49.892Z,73.11
2016-09-26T09:44:49.917Z,73.02
2016-09-26T09:45:49.936Z,73.5
2016-09-26T09:46:49.953Z,73.88
2016-09-26T09:47:49.968Z,73.69
2016-09-26T09:48:50.001Z,73.5
2016-09-26T09:49:50.026Z,73.02
2016-09-26T09:50:50.039Z,73.02
2016-09-26T09:51:50.054Z,73.5
2016-09-26T09:52:50.095Z,73.21
2016-09-26T09:53:50.114Z,73.69
2016-09-26T09:54:50.130Z,72.92
2016-09-26T09:55:50.150Z,72.83
2016-09-26T09:56:50.164Z,72.25
2016-09-26T09:57:50.194Z,71.61
2016-09-26T09:58:50.226Z,70.65
2016-09-26T09:59:50.232Z,69.92
2016-09-26T10:00:50.273Z,69.53
2016-09-26T10:01:50.280Z,69.06
2016-09-26T10:02:50.313Z,68.32
2016-09-26T10:03:50.336Z,67.65
2016-09-26T10:04:50.354Z,68.22
2016-09-26T10:05:50.372Z,67.93
2016-09-26T10:06:50.401Z,67.93
2016-09-26T10:07:50.411Z,67.74
2016-09-26T10:08:50.436Z,68.22
2016-09-26T10:09:50.464Z,68.8
2016-09-26T10:10:50.480Z,69.44
2016-09-26T10:11:50.513Z,70.5
2016-09-26T10:12:50.531Z,70.21
2016-09-26T10:13:50.544Z,71.04
2016-09-26T10:14:50.577Z,71.33
2016-09-26T10:15:50.604Z,71.52
2016-09-26T10:16:50.617Z,71.33
2016-09-26T10:17:50.633Z,70.9
2016-09-26T10:18:50.657Z,70.27
2016-09-26T10:19:50.679Z,69.98
2016-09-26T10:20:50.706Z,69.5
2016-09-26T10:21:50.741Z,69.89
2016-09-26T10:22:50.757Z,69.82
2016-09-26T10:23:50.780Z,69.63
2016-09-26T10:24:50.794Z,68.86
2016-09-26T10:25:50.828Z,68.9
2016-09-26T10:26:50.842Z,68.41
2016-09-26T10:27:50.867Z,68.32
2016-09-26T10:28:50.877Z,68.7
2016-09-26T10:29:50.905Z,68.32
2016-09-26T10:30:50.935Z,68.32
2016-09-26T10:31:50.957Z,68.13
2016-09-26T10:32:50.974Z,67.35
2016-09-26T10:33:50.999Z,67.26
2016-09-26T10:34:51.029Z,67.16
2016-09-26T10:35:51.051Z,67.26
2016-09-26T10:36:51.063Z,67.1
2016-09-26T10:37:51.093Z,66.42
2016-09-26T10:38:51.104Z,65.85
2016-09-26T10:39:51.141Z,66.36
2016-09-26T10:40:51.161Z,65.94
2016-09-26T10:41:51.182Z,66.33
2016-09-26T10:42:51.198Z,65.94
2016-09-26T10:43:51.236Z,65.01
2016-09-26T10:44:51.255Z,64.43
2016-09-26T10:45:51.258Z,64.63
2016-09-26T10:46:51.295Z,64.15
2016-09-26T10:47:51.323Z,64.37
2016-09-26T10:48:51.327Z,64.15
2016-09-26T10:49:51.361Z,64.25
2016-09-26T10:50:51.385Z,64.53
2016-09-26T10:51:51.415Z,64.53
2016-09-26T10:52:51.435Z,64.34
2016-09-26T10:53:51.456Z,64.82
2016-09-26T10:54:51.479Z,65.2
2016-09-26T10:55:51.501Z,65.69
2016-09-26T10:56:51.522Z,65.66
2016-09-26T10:57:51.553Z,65.56
2016-09-26T10:58:51.570Z,65.75
2016-09-26T10:59:51.587Z,66.14
2016-09-26T11:00:51.610Z,67.07
2016-09-26T11:01:51.642Z,67.74
2016-09-26T11:02:51.658Z,67.93
2016-09-26T11:03:51.688Z,68.03
2016-09-26T11:04:51.697Z,68.13
2016-09-26T11:05:51.729Z,68.67
2016-09-26T11:06:51.756Z,68.67
2016-09-26T11:07:51.770Z,68.86
2016-09-26T11:08:51.794Z,68.76
2016-09-26T11:09:51.809Z,68.96
2016-09-26T11:10:51.840Z,69.53
2016-09-26T11:11:51.857Z,68.86
2016-09-26T11:12:51.877Z,68.83
2016-09-26T11:13:51.903Z,69.02
2016-09-26T11:14:51.933Z,68.83
2016-09-26T11:15:51.952Z,69.02
2016-09-26T11:16:51.973Z,69.12
2016-09-26T11:17:51.998Z,69.02
2016-09-26T11:18:52.021Z,69.12
2016-09-26T11:19:52.036Z,68.83
2016-09-26T11:20:52.063Z,68.92
2016-09-26T11:21:52.079Z,68.67
2016-09-26T11:22:52.115Z,68.67
2016-09-26T11:23:52.131Z,68.29
2016-09-26T11:24:52.142Z,67.61
2016-09-26T11:25:52.172Z,67.03
2016-09-26T11:26:52.192Z,66.97
2016-09-26T11:27:52.222Z,66.3
2016-09-26T11:28:52.241Z,64.89
2016-09-26T11:29:52.258Z,64.12
2016-09-26T11:30:52.278Z,62.9
2016-09-26T11:31:52.307Z,62.99
2016-09-26T11:32:52.332Z,61.93
2016-09-26T11:33:52.350Z,61.68
2016-09-26T11:34:52.382Z,61.1
2016-09-26T11:35:52.403Z,60.8
2016-09-26T11:36:52.426Z,59.58
2016-09-26T11:37:52.449Z,59.39
2016-09-26T11:38:52.468Z,58.72
2016-09-26T11:39:52.489Z,58.52
2016-09-26T11:40:52.511Z,58.36
2016-09-26T11:41:52.527Z,57.97
2016-09-26T11:42:52.566Z,57.78
2016-09-26T11:43:52.577Z,57.01
2016-09-26T11:44:52.613Z,56.91
2016-09-26T11:45:52.623Z,56.52
2016-09-26T11:46:52.645Z,56.56
2016-09-26T11:47:52.679Z,55.98
2016-09-26T11:48:52.689Z,55.78
2016-09-26T11:49:52.726Z,55.49
2016-09-26T11:50:52.753Z,55.13
2016-09-26T11:51:52.769Z,55.04
2016-09-26T11:52:52.784Z,54.82
2016-09-26T11:53:52.817Z,54.91
2016-09-26T11:54:52.853Z,55.59
2016-09-26T11:55:52.865Z,56.43
2016-09-26T11:56:52.887Z,56.43
2016-09-26T11:57:52.903Z,56.4
2016-09-26T11:58:52.938Z,56.88
2016-09-26T11:59:52.953Z,56.52
2016-09-26T12:00:52.984Z,56.24
2016-09-26T12:01:53.005Z,56.24
2016-09-26T12:02:53.029Z,55.94
2016-09-26T12:03:53.057Z,56.11
2016-09-26T12:04:53.074Z,56.59
2016-09-26T12:05:53.103Z,56.98
2016-09-26T12:06:53.133Z,56.59
2016-09-26T12:07:53.153Z,56.21
2016-09-26T12:09:08.007Z,56.49
2016-09-26T12:09:53.189Z,56.21
2016-09-26T12:10:53.219Z,55.92
2016-09-26T12:11:53.245Z,55.66
2016-09-26T12:12:53.274Z,54.88
2016-09-26T12:13:53.292Z,54.98
2016-09-26T12:14:53.515Z,54.88
2016-09-26T12:15:53.328Z,54.02
2016-09-26T12:16:53.365Z,52.4
2016-09-26T12:17:53.382Z,51.34
2016-09-26T12:18:53.410Z,51.82
2016-09-26T12:19:53.434Z,52.79
2016-09-26T12:20:53.453Z,52.79
2016-09-26T12:21:53.477Z,53.27
2016-09-26T12:22:53.509Z,52.79
2016-09-26T12:23:53.529Z,53.08
2016-09-26T12:24:53.547Z,53.08
2016-09-26T12:25:53.573Z,52.69
2016-09-26T12:26:53.602Z,51.53
2016-09-26T12:27:53.605Z,51.75
2016-09-26T12:28:53.641Z,51.27
2016-09-26T12:29:53.664Z,50.11
2016-09-26T12:30:53.692Z,48.76
2016-09-26T12:31:53.721Z,48.28
2016-09-26T12:32:53.743Z,48.08
2016-09-26T12:33:53.766Z,48.57
2016-09-26T12:34:53.792Z,49.34
2016-09-26T12:35:53.800Z,49.32
2016-09-26T12:36:53.833Z,50.38
2016-09-26T12:37:53.855Z,50.74
2016-09-26T12:38:53.892Z,49.29
2016-09-26T12:39:53.904Z,49.58
2016-09-26T12:40:53.925Z,50.13
2016-09-26T12:41:53.956Z,49.27
2016-09-26T12:42:53.980Z,51.48
2016-09-26T12:44:54.023Z,55.24
2016-09-26T12:45:54.047Z,55.92
2016-09-26T12:46:54.067Z,56.3
2016-09-26T12:47:54.098Z,56.27
2016-09-26T12:48:54.113Z,56.18
2016-09-26T12:49:54.146Z,56.57
2016-09-26T12:50:54.166Z,57.24
2016-09-26T12:51:54.193Z,56.95
2016-09-26T12:52:54.204Z,56.18
2016-09-26T12:53:54.233Z,56.09
2016-09-26T12:54:54.266Z,56.47
2016-09-26T12:55:54.278Z,55.6
2016-09-26T12:56:54.306Z,55.99
2016-09-26T12:57:54.322Z,55.73